Weather History for Monticello, NY

Change the Weather History Date:

Wednesday, July 24, 2013

  Actual Average Record
Temperature  
Mean Temperature 63 °F -  
Max Temperature 73 °F 76 °F 87 °F (1999)
Min Temperature 53 °F 56 °F 51 °F (2005)
Degree Days  
Heating Degree Days 2    
Growing Degree Days 13 (Base 50)    
Moisture  
Dew Point 54 °F    
Average Humidity 69    
Maximum Humidity 88    
Minimum Humidity 47    
Precipitation  
Precipitation 0.00 in - - ()
Sea Level Pressure  
Sea Level Pressure 29.84 in    
Wind  
Wind Speed 7 mph (NW)    
Max Wind Speed 18 mph    
Max Gust Speed 23 mph    
Visibility 9 miles    
Events      
Averages and records for this station are not official NWS values.
T = Trace of Precipitation, MM = Missing Value Source: NWS Daily Summary

Daily Weather History Graph

Daily Weather History Graph

Search for Another Location

Airport:

Trip Planner

Search our weather history database for the weather conditions in past years. The results will help you decide how hot, cold, wet, or windy it might be!

Date:

Astronomy

Jul. 24, 2013 Rise Set
Actual Time 5:45 AM EDT 8:24 PM EDT
Civil Twilight 5:13 AM EDT 8:57 PM EDT
Nautical Twilight 4:33 AM EDT 9:37 PM EDT
Astronomical Twilight 3:47 AM EDT 10:22 PM EDT
Moon 9:26 PM EDT (7/24) 8:05 AM EDT (7/24)
Length of Visible Light 15h 43m
Length of Day
14h 39m
Waning Gibbous, 95% of the Moon is Illuminated
Jul 24
Waning Gibbous
Jul 29
Last Quarter
Aug 6
New
Aug 14
First Quarter
Aug 20
Full

Hourly Weather History & Observations

Time (EDT) Temp. Dew Point Humidity Pressure Visibility Wind Dir Wind Speed Gust Speed Precip Events Conditions
12:15 AM 64.4 °F 60.8 °F 88% 29.71 in 0.5 mi Calm Calm - N/A   Overcast
12:35 AM 64.4 °F 60.8 °F 88% 29.72 in 0.2 mi Calm Calm - N/A   Overcast
12:55 AM 64.4 °F 60.8 °F 88% 29.71 in 0.5 mi Calm Calm - N/A   Overcast
1:15 AM 64.4 °F 60.8 °F 88% 29.71 in 1.0 mi Calm Calm - N/A   Mostly Cloudy
1:35 AM 64.4 °F 60.8 °F 88% 29.70 in 10.0 mi Calm Calm - N/A   Partly Cloudy
1:55 AM 64.4 °F 60.8 °F 88% 29.70 in 10.0 mi Calm Calm - N/A   Mostly Cloudy
2:15 AM 64.4 °F 60.8 °F 88% 29.71 in 9.0 mi WNW 12.7 mph 21.9 mph N/A   Mostly Cloudy
2:35 AM 64.4 °F 60.8 °F 88% 29.72 in 10.0 mi West 4.6 mph - N/A   Overcast
2:55 AM 64.4 °F 60.8 °F 88% 29.72 in 10.0 mi West 5.8 mph - N/A   Overcast
3:15 AM 64.4 °F 60.8 °F 88% 29.71 in 10.0 mi NW 5.8 mph - N/A   Overcast
3:35 AM 64.4 °F 60.8 °F 88% 29.71 in 10.0 mi NW 3.5 mph - N/A   Overcast
3:55 AM 64.4 °F 59.0 °F 83% 29.70 in 10.0 mi NNW 3.5 mph - N/A   Overcast
4:15 AM 64.4 °F 59.0 °F 83% 29.70 in 8.0 mi West 4.6 mph - N/A   Mostly Cloudy
4:35 AM 64.4 °F 60.8 °F 88% 29.71 in 9.0 mi WNW 6.9 mph - N/A   Mostly Cloudy
4:55 AM 64.4 °F 59.0 °F 83% 29.71 in 10.0 mi WNW 8.1 mph - N/A   Partly Cloudy
5:15 AM 64.4 °F 59.0 °F 83% 29.71 in 9.0 mi WNW 6.9 mph - N/A   Clear
5:35 AM 62.6 °F 59.0 °F 88% 29.72 in 5.0 mi West 4.6 mph - N/A   Clear
5:55 AM 62.6 °F 59.0 °F 88% 29.72 in 4.0 mi West 4.6 mph - N/A   Clear
6:15 AM 62.6 °F 57.2 °F 82% 29.73 in 4.0 mi West 3.5 mph - N/A   Clear
6:35 AM 62.6 °F 59.0 °F 88% 29.74 in 4.0 mi WNW 6.9 mph - N/A   Clear
6:55 AM 64.4 °F 60.8 °F 88% 29.74 in 6.0 mi WNW 8.1 mph - N/A   Partly Cloudy
7:15 AM 64.4 °F 60.8 °F 88% 29.75 in 10.0 mi WNW 10.4 mph - N/A   Mostly Cloudy
7:35 AM 64.4 °F 60.8 °F 88% 29.76 in 10.0 mi WNW 10.4 mph - N/A   Partly Cloudy
7:55 AM 64.4 °F 59.0 °F 83% 29.76 in 10.0 mi NW 10.4 mph - N/A   Scattered Clouds
8:15 AM 66.2 °F 57.2 °F 73% 29.78 in 10.0 mi NW 11.5 mph 19.6 mph N/A   Partly Cloudy
8:35 AM 66.2 °F 59.0 °F 78% 29.78 in 10.0 mi WNW 8.1 mph - N/A   Partly Cloudy
8:55 AM 66.2 °F 57.2 °F 73% 29.79 in 10.0 mi WNW 10.4 mph 17.3 mph N/A   Mostly Cloudy
9:15 AM 64.4 °F 57.2 °F 77% 29.81 in 10.0 mi NW 8.1 mph 18.4 mph N/A   Overcast
9:35 AM 66.2 °F 57.2 °F 73% 29.81 in 10.0 mi NW 13.8 mph - N/A   Overcast
9:55 AM 64.4 °F 55.4 °F 73% 29.82 in 10.0 mi NW 8.1 mph - N/A   Overcast
10:15 AM 66.2 °F 55.4 °F 68% 29.82 in 10.0 mi NW 11.5 mph 20.7 mph N/A   Overcast
10:35 AM 64.4 °F 55.4 °F 73% 29.83 in 10.0 mi NNW 13.8 mph 20.7 mph N/A   Overcast
10:55 AM 66.2 °F 55.4 °F 68% 29.84 in 10.0 mi NNW 10.4 mph - N/A   Mostly Cloudy
11:15 AM 66.2 °F 55.4 °F 68% 29.84 in 10.0 mi NW 13.8 mph 19.6 mph N/A   Overcast
11:35 AM 69.8 °F 55.4 °F 60% 29.85 in 10.0 mi NNW 13.8 mph 17.3 mph N/A   Mostly Cloudy
11:55 AM 69.8 °F 53.6 °F 56% 29.85 in 10.0 mi WNW 16.1 mph - N/A   Mostly Cloudy
12:15 PM 71.6 °F 53.6 °F 53% 29.86 in 10.0 mi WNW 9.2 mph - N/A   Scattered Clouds
12:35 PM 71.6 °F 53.6 °F 53% 29.85 in 10.0 mi NW 11.5 mph 21.9 mph N/A   Mostly Cloudy
12:55 PM 71.6 °F 53.6 °F 53% 29.86 in 10.0 mi NW 11.5 mph 17.3 mph N/A   Mostly Cloudy
1:15 PM 71.6 °F 53.6 °F 53% 29.85 in 10.0 mi NW 11.5 mph 19.6 mph N/A   Overcast
1:35 PM 73.4 °F 53.6 °F 50% 29.84 in 10.0 mi NW 12.7 mph 19.6 mph N/A   Mostly Cloudy
1:55 PM 71.6 °F 53.6 °F 53% 29.85 in 10.0 mi WNW 15.0 mph 23.0 mph N/A   Mostly Cloudy
2:15 PM 73.4 °F 51.8 °F 47% 29.85 in 10.0 mi West 11.5 mph 19.6 mph N/A   Partly Cloudy
2:35 PM 71.6 °F 53.6 °F 53% 29.86 in 10.0 mi NNW 12.7 mph 18.4 mph N/A   Scattered Clouds
2:55 PM 73.4 °F 53.6 °F 50% 29.87 in 10.0 mi WNW 13.8 mph - N/A   Mostly Cloudy
3:15 PM 71.6 °F 51.8 °F 50% 29.87 in 10.0 mi NW 16.1 mph 19.6 mph N/A   Mostly Cloudy
3:35 PM 73.4 °F 51.8 °F 47% 29.88 in 10.0 mi NW 13.8 mph 19.6 mph N/A   Partly Cloudy
3:55 PM 71.6 °F 51.8 °F 50% 29.88 in 10.0 mi NW 11.5 mph 16.1 mph N/A   Mostly Cloudy
4:15 PM 73.4 °F 51.8 °F 47% 29.88 in 10.0 mi North 11.5 mph - N/A   Mostly Cloudy
4:35 PM 71.6 °F 51.8 °F 50% 29.89 in 10.0 mi NNW 12.7 mph 18.4 mph N/A   Overcast
4:55 PM 68.0 °F 48.2 °F 49% 29.90 in 10.0 mi NW 11.5 mph - N/A   Mostly Cloudy
5:15 PM 69.8 °F 50.0 °F 49% 29.89 in 10.0 mi WNW 11.5 mph - N/A   Partly Cloudy
5:35 PM 66.2 °F 48.2 °F 52% 29.90 in 10.0 mi NNW 12.7 mph - N/A   Scattered Clouds
5:55 PM 69.8 °F 51.8 °F 53% 29.90 in 10.0 mi WNW 12.7 mph 21.9 mph N/A   Mostly Cloudy
6:15 PM 68.0 °F 50.0 °F 52% 29.91 in 10.0 mi NW 17.3 mph - N/A   Scattered Clouds
6:35 PM 64.4 °F 48.2 °F 56% 29.91 in 10.0 mi NNW 18.4 mph 21.9 mph N/A   Scattered Clouds
6:55 PM 62.6 °F 46.4 °F 55% 29.92 in 10.0 mi NNW 16.1 mph 23.0 mph N/A   Clear
7:15 PM 62.6 °F 46.4 °F 55% 29.93 in 10.0 mi NNW 8.1 mph 20.7 mph N/A   Clear
7:35 PM 62.6 °F 46.4 °F 55% 29.95 in 10.0 mi North 13.8 mph 18.4 mph N/A   Scattered Clouds
7:55 PM 60.8 °F 46.4 °F 59% 29.95 in 10.0 mi NNW 13.8 mph 18.4 mph N/A   Partly Cloudy
8:15 PM 59.0 °F 44.6 °F 59% 29.96 in 10.0 mi NNW 11.5 mph 18.4 mph N/A   Clear
8:35 PM 57.2 °F 44.6 °F 63% 29.97 in 10.0 mi NNW 11.5 mph - N/A   Clear
8:55 PM 57.2 °F 44.6 °F 63% 29.97 in 10.0 mi NNW 11.5 mph - N/A   Clear
9:15 PM 55.4 °F 44.6 °F 67% 29.98 in 10.0 mi NNW 8.1 mph - N/A   Clear
9:35 PM 55.4 °F 44.6 °F 67% 29.99 in 10.0 mi NW 8.1 mph - N/A   Clear
9:55 PM 55.4 °F 44.6 °F 67% 30.00 in 10.0 mi NNW 9.2 mph - N/A   Partly Cloudy
10:15 PM 55.4 °F 44.6 °F 67% 30.01 in 10.0 mi NNW 8.1 mph - N/A   Mostly Cloudy
10:35 PM 55.4 °F 44.6 °F 67% 30.01 in 10.0 mi NNW 9.2 mph - N/A   Mostly Cloudy
10:55 PM 55.4 °F 42.8 °F 63% 30.02 in 10.0 mi North 8.1 mph - N/A   Partly Cloudy
11:15 PM 53.6 °F 42.8 °F 67% 30.02 in 10.0 mi North 5.8 mph - N/A   Scattered Clouds
11:35 PM 53.6 °F 42.8 °F 67% 30.02 in 10.0 mi NNW 4.6 mph - N/A   Mostly Cloudy
11:55 PM 53.6 °F 44.6 °F 72% 30.02 in 10.0 mi Calm Calm - N/A   Overcast